createdAt,value
2023-03-02T00:00:48.291Z,1016.04
2023-03-02T00:01:48.332Z,1016.04
2023-03-02T00:02:48.321Z,1016.05
2023-03-02T00:03:48.271Z,1016.06
2023-03-02T00:04:48.242Z,1016.08
2023-03-02T00:05:48.233Z,1016.09
2023-03-02T00:06:48.216Z,1016.11
2023-03-02T00:07:48.222Z,1016.13
2023-03-02T00:08:48.273Z,1016.16
2023-03-02T00:09:48.198Z,1016.11
2023-03-02T00:10:48.178Z,1016.13
2023-03-02T00:11:48.185Z,1016.12
2023-03-02T00:12:48.155Z,1016.14
2023-03-02T00:13:48.144Z,1016.19
2023-03-02T00:14:48.141Z,1016.16
2023-03-02T00:15:48.149Z,1016.20
2023-03-02T00:16:48.126Z,1016.19
2023-03-02T00:17:48.096Z,1016.18
2023-03-02T00:18:48.107Z,1016.21
2023-03-02T00:19:48.086Z,1016.22
2023-03-02T00:20:48.063Z,1016.24
2023-03-02T00:21:48.076Z,1016.23
2023-03-02T00:22:48.040Z,1016.27
2023-03-02T00:23:48.040Z,1016.31
2023-03-02T00:24:48.042Z,1016.28
2023-03-02T00:25:48.016Z,1016.31
2023-03-02T00:26:48.017Z,1016.28
2023-03-02T00:27:48.007Z,1016.26
2023-03-02T00:28:47.993Z,1016.26
2023-03-02T00:29:47.975Z,1016.31
2023-03-02T00:30:47.963Z,1016.34
2023-03-02T00:31:48.025Z,1016.33
2023-03-02T00:32:47.934Z,1016.31
2023-03-02T00:33:47.943Z,1016.36
2023-03-02T00:34:47.914Z,1016.38
2023-03-02T00:35:47.947Z,1016.36
2023-03-02T00:36:47.903Z,1016.35
2023-03-02T00:37:47.894Z,1016.35
2023-03-02T00:38:47.892Z,1016.33
2023-03-02T00:39:47.864Z,1016.34
2023-03-02T00:40:47.856Z,1016.36
2023-03-02T00:41:47.843Z,1016.37
2023-03-02T00:42:47.822Z,1016.33
2023-03-02T00:43:47.831Z,1016.32
2023-03-02T00:44:47.846Z,1016.30
2023-03-02T00:45:47.793Z,1016.31
2023-03-02T00:46:47.844Z,1016.34
2023-03-02T00:47:47.773Z,1016.30
2023-03-02T00:48:47.789Z,1016.30
2023-03-02T00:49:47.764Z,1016.25
2023-03-02T00:50:47.752Z,1016.23
2023-03-02T00:51:47.732Z,1016.27
2023-03-02T00:52:47.731Z,1016.27
2023-03-02T00:53:47.723Z,1016.26
2023-03-02T00:54:47.707Z,1016.23
2023-03-02T00:55:47.690Z,1016.22
2023-03-02T00:56:47.700Z,1016.23
2023-03-02T00:57:47.681Z,1016.21
2023-03-02T00:58:47.690Z,1016.22
2023-03-02T00:59:47.652Z,1016.23
2023-03-02T01:00:47.652Z,1016.24
2023-03-02T01:01:47.622Z,1016.20
2023-03-02T01:02:47.707Z,1016.22
2023-03-02T01:03:47.623Z,1016.20
2023-03-02T01:04:47.606Z,1016.18
2023-03-02T01:05:47.603Z,1016.19
2023-03-02T01:06:47.585Z,1016.16
2023-03-02T01:07:47.586Z,1016.14
2023-03-02T01:08:47.580Z,1016.14
2023-03-02T01:09:47.568Z,1016.14
2023-03-02T01:10:47.546Z,1016.12
2023-03-02T01:11:47.536Z,1016.13
2023-03-02T01:12:47.549Z,1016.10
2023-03-02T01:13:47.517Z,1016.11
2023-03-02T01:14:47.520Z,1016.12
2023-03-02T01:15:47.498Z,1016.09
2023-03-02T01:16:47.497Z,1016.11
2023-03-02T01:17:47.478Z,1016.10
2023-03-02T01:18:47.464Z,1016.10
2023-03-02T01:19:47.450Z,1016.07
2023-03-02T01:20:47.451Z,1016.08
2023-03-02T01:21:47.429Z,1016.02
2023-03-02T01:22:47.440Z,1016.01
2023-03-02T01:23:47.417Z,1015.97
2023-03-02T01:24:47.403Z,1015.95
2023-03-02T01:25:47.382Z,1015.96
2023-03-02T01:26:47.379Z,1015.90
2023-03-02T01:27:47.364Z,1015.89
2023-03-02T01:28:48.240Z,1015.90
2023-03-02T01:29:47.350Z,1015.88
2023-03-02T01:30:47.345Z,1015.87
2023-03-02T01:31:47.400Z,1015.87
2023-03-02T01:32:47.321Z,1015.86
2023-03-02T01:33:47.318Z,1015.84
2023-03-02T01:34:47.305Z,1015.82
2023-03-02T01:35:47.318Z,1015.82
2023-03-02T01:36:47.269Z,1015.84
2023-03-02T01:37:47.260Z,1015.81
2023-03-02T01:38:47.309Z,1015.79
2023-03-02T01:39:47.249Z,1015.80
2023-03-02T01:40:47.249Z,1015.77
2023-03-02T01:41:47.240Z,1015.77
2023-03-02T01:42:47.227Z,1015.75
2023-03-02T01:43:47.209Z,1015.76
2023-03-02T01:44:47.189Z,1015.77
2023-03-02T01:45:47.358Z,1015.75
2023-03-02T01:46:47.304Z,1015.77
2023-03-02T01:47:47.181Z,1015.73
2023-03-02T01:48:47.158Z,1015.76
2023-03-02T01:49:47.139Z,1015.75
2023-03-02T01:50:47.132Z,1015.77
2023-03-02T01:51:47.105Z,1015.73
2023-03-02T01:52:47.118Z,1015.68
2023-03-02T01:53:47.122Z,1015.70
2023-03-02T01:54:47.098Z,1015.71
2023-03-02T01:55:47.089Z,1015.69
2023-03-02T01:56:47.080Z,1015.69
2023-03-02T01:57:47.038Z,1015.69
2023-03-02T01:58:47.057Z,1015.67
2023-03-02T01:59:47.085Z,1015.65
2023-03-02T02:00:47.193Z,1015.67
2023-03-02T02:01:47.014Z,1015.65
2023-03-02T02:02:47.003Z,1015.63
2023-03-02T02:03:47.037Z,1015.64
2023-03-02T02:04:47.081Z,1015.63
2023-03-02T02:05:46.967Z,1015.63
2023-03-02T02:06:46.993Z,1015.60
2023-03-02T02:07:47.044Z,1015.64
2023-03-02T02:08:46.942Z,1015.64
2023-03-02T02:09:46.920Z,1015.62
2023-03-02T02:10:46.919Z,1015.62
2023-03-02T02:11:46.913Z,1015.64
2023-03-02T02:12:46.935Z,1015.62
2023-03-02T02:13:46.903Z,1015.60
2023-03-02T02:14:46.883Z,1015.61
2023-03-02T02:15:46.857Z,1015.62
2023-03-02T02:16:46.905Z,1015.61
2023-03-02T02:17:46.839Z,1015.60
2023-03-02T02:18:46.848Z,1015.63
2023-03-02T02:19:46.822Z,1015.63
2023-03-02T02:20:46.838Z,1015.62
2023-03-02T02:21:46.809Z,1015.64
2023-03-02T02:22:46.802Z,1015.57
2023-03-02T02:24:07.907Z,1015.58
2023-03-02T02:24:46.772Z,1015.57
2023-03-02T02:25:46.774Z,1015.53
2023-03-02T02:26:46.750Z,1015.51
2023-03-02T02:27:46.736Z,1015.52
2023-03-02T02:28:46.744Z,1015.50
2023-03-02T02:29:46.738Z,1015.47
2023-03-02T02:30:46.697Z,1015.49
2023-03-02T02:31:46.763Z,1015.47
2023-03-02T02:32:46.753Z,1015.53
2023-03-02T02:33:46.668Z,1015.49
2023-03-02T02:34:46.676Z,1015.49
2023-03-02T02:35:46.738Z,1015.46
2023-03-02T02:36:46.638Z,1015.47
2023-03-02T02:37:46.634Z,1015.47
2023-03-02T02:38:46.617Z,1015.44
2023-03-02T02:39:46.615Z,1015.44
2023-03-02T02:40:46.599Z,1015.42
2023-03-02T02:41:46.587Z,1015.45
2023-03-02T02:42:46.576Z,1015.42
2023-03-02T02:43:46.570Z,1015.39
2023-03-02T02:44:46.622Z,1015.42
2023-03-02T02:45:46.609Z,1015.43
2023-03-02T02:46:46.540Z,1015.42
2023-03-02T02:47:46.526Z,1015.44
2023-03-02T02:48:46.519Z,1015.44
2023-03-02T02:49:46.520Z,1015.45
2023-03-02T02:50:46.506Z,1015.45
2023-03-02T02:51:46.467Z,1015.44
2023-03-02T02:52:46.476Z,1015.45
2023-03-02T02:53:46.456Z,1015.51
2023-03-02T02:54:46.472Z,1015.44
2023-03-02T02:55:47.181Z,1015.45
2023-03-02T02:56:46.446Z,1015.50
2023-03-02T02:57:46.418Z,1015.49
2023-03-02T02:58:46.416Z,1015.48
2023-03-02T02:59:46.408Z,1015.52
2023-03-02T03:00:46.388Z,1015.48
2023-03-02T03:01:46.387Z,1015.47
2023-03-02T03:02:46.378Z,1015.48
2023-03-02T03:03:46.344Z,1015.51
2023-03-02T03:04:46.387Z,1015.50
2023-03-02T03:05:46.328Z,1015.54
2023-03-02T03:06:46.325Z,1015.55
2023-03-02T03:07:46.321Z,1015.54
2023-03-02T03:08:46.309Z,1015.57
2023-03-02T03:09:46.363Z,1015.55
2023-03-02T03:10:46.291Z,1015.53
2023-03-02T03:11:46.274Z,1015.50
2023-03-02T03:12:46.259Z,1015.53
2023-03-02T03:13:46.252Z,1015.52
2023-03-02T03:14:46.277Z,1015.53
2023-03-02T03:15:46.225Z,1015.54
2023-03-02T03:16:46.301Z,1015.50
2023-03-02T03:17:46.207Z,1015.51
2023-03-02T03:18:46.204Z,1015.50
2023-03-02T03:19:46.218Z,1015.51
2023-03-02T03:20:46.209Z,1015.48
2023-03-02T03:21:46.151Z,1015.50
2023-03-02T03:22:46.170Z,1015.54
2023-03-02T03:23:46.154Z,1015.50
2023-03-02T03:24:46.148Z,1015.51
2023-03-02T03:25:46.122Z,1015.47
2023-03-02T03:26:46.120Z,1015.45
2023-03-02T03:27:46.101Z,1015.51
2023-03-02T03:28:46.109Z,1015.48
2023-03-02T03:29:46.103Z,1015.46
2023-03-02T03:30:46.071Z,1015.46
2023-03-02T03:31:46.064Z,1015.47
2023-03-02T03:32:46.054Z,1015.42
2023-03-02T03:33:46.030Z,1015.43
2023-03-02T03:34:46.049Z,1015.44
2023-03-02T03:35:46.089Z,1015.45
2023-03-02T03:36:45.998Z,1015.42
2023-03-02T03:37:46.058Z,1015.42
2023-03-02T03:38:46.009Z,1015.41
2023-03-02T03:39:45.981Z,1015.41
2023-03-02T03:40:45.969Z,1015.40
2023-03-02T03:41:45.960Z,1015.38
2023-03-02T03:42:45.951Z,1015.44
2023-03-02T03:43:45.932Z,1015.44
2023-03-02T03:44:45.938Z,1015.45
2023-03-02T03:45:45.931Z,1015.42
2023-03-02T03:46:45.917Z,1015.42
2023-03-02T03:47:45.944Z,1015.41
2023-03-02T03:48:45.874Z,1015.37
2023-03-02T03:49:45.883Z,1015.41
2023-03-02T03:50:45.892Z,1015.37
2023-03-02T03:51:45.841Z,1015.38
2023-03-02T03:52:45.824Z,1015.36
2023-03-02T03:53:45.826Z,1015.37
2023-03-02T03:54:45.824Z,1015.38
2023-03-02T03:55:45.819Z,1015.41
2023-03-02T03:56:45.797Z,1015.41
2023-03-02T03:57:45.778Z,1015.39
2023-03-02T03:58:45.811Z,1015.39
2023-03-02T03:59:45.765Z,1015.41
2023-03-02T04:00:45.782Z,1015.41
2023-03-02T04:01:45.800Z,1015.40
2023-03-02T04:02:45.798Z,1015.44
2023-03-02T04:03:45.704Z,1015.44
2023-03-02T04:04:45.724Z,1015.44
2023-03-02T04:05:45.684Z,1015.42
2023-03-02T04:06:45.688Z,1015.43
2023-03-02T04:07:45.676Z,1015.40
2023-03-02T04:08:45.678Z,1015.43
2023-03-02T04:09:45.682Z,1015.43
2023-03-02T04:10:45.652Z,1015.40
2023-03-02T04:11:45.621Z,1015.42
2023-03-02T04:12:45.635Z,1015.43
2023-03-02T04:13:45.608Z,1015.42
2023-03-02T04:14:45.613Z,1015.43
2023-03-02T04:15:47.109Z,1015.46
2023-03-02T04:16:45.584Z,1015.42
2023-03-02T04:17:45.584Z,1015.44
2023-03-02T04:18:45.565Z,1015.46
2023-03-02T04:19:45.577Z,1015.49
2023-03-02T04:20:45.531Z,1015.49
2023-03-02T04:21:45.552Z,1015.48
2023-03-02T04:22:45.521Z,1015.47
2023-03-02T04:23:45.670Z,1015.48
2023-03-02T04:24:45.498Z,1015.48
2023-03-02T04:25:45.474Z,1015.50
2023-03-02T04:26:45.484Z,1015.50
2023-03-02T04:27:45.451Z,1015.44
2023-03-02T04:28:45.458Z,1015.47
2023-03-02T04:29:45.449Z,1015.49
2023-03-02T04:30:45.468Z,1015.52
2023-03-02T04:31:45.418Z,1015.49
2023-03-02T04:32:45.408Z,1015.48
2023-03-02T04:33:45.403Z,1015.45
2023-03-02T04:34:45.412Z,1015.49
2023-03-02T04:35:45.448Z,1015.48
2023-03-02T04:36:45.374Z,1015.46
2023-03-02T04:37:45.383Z,1015.47
2023-03-02T04:38:45.362Z,1015.45
2023-03-02T04:39:45.354Z,1015.43
2023-03-02T04:40:45.333Z,1015.43
2023-03-02T04:41:45.326Z,1015.43
2023-03-02T04:42:45.315Z,1015.43
2023-03-02T04:43:45.305Z,1015.41
2023-03-02T04:44:45.310Z,1015.42
2023-03-02T04:45:45.284Z,1015.39
2023-03-02T04:46:45.351Z,1015.37
2023-03-02T04:47:45.264Z,1015.38
2023-03-02T04:48:45.252Z,1015.39
2023-03-02T04:49:45.261Z,1015.42
2023-03-02T04:50:45.237Z,1015.42
2023-03-02T04:51:45.225Z,1015.42
2023-03-02T04:52:45.227Z,1015.36
2023-03-02T04:53:45.219Z,1015.36
2023-03-02T04:54:45.208Z,1015.40
2023-03-02T04:55:45.177Z,1015.37
2023-03-02T04:56:45.178Z,1015.34
2023-03-02T04:57:45.178Z,1015.37
2023-03-02T04:58:45.159Z,1015.34
2023-03-02T04:59:45.153Z,1015.39
2023-03-02T05:00:45.126Z,1015.34
2023-03-02T05:01:45.118Z,1015.37
2023-03-02T05:02:45.098Z,1015.34
2023-03-02T05:03:45.095Z,1015.34
2023-03-02T05:04:45.164Z,1015.38
2023-03-02T05:05:45.089Z,1015.35
2023-03-02T05:06:45.063Z,1015.36
2023-03-02T05:07:45.054Z,1015.35
2023-03-02T05:08:45.046Z,1015.29
2023-03-02T05:09:45.043Z,1015.31
2023-03-02T05:10:45.024Z,1015.34
2023-03-02T05:11:45.024Z,1015.36
2023-03-02T05:12:45.005Z,1015.31
2023-03-02T05:13:44.995Z,1015.33
2023-03-02T05:14:45.870Z,1015.33
2023-03-02T05:15:44.994Z,1015.31
2023-03-02T05:16:44.989Z,1015.30
2023-03-02T05:17:44.944Z,1015.34
2023-03-02T05:18:44.936Z,1015.31
2023-03-02T05:19:44.940Z,1015.30
2023-03-02T05:20:44.931Z,1015.32
2023-03-02T05:21:44.911Z,1015.31
2023-03-02T05:22:44.897Z,1015.33
2023-03-02T05:23:44.884Z,1015.31
2023-03-02T05:24:44.894Z,1015.31
2023-03-02T05:25:44.863Z,1015.34
2023-03-02T05:26:44.845Z,1015.36
2023-03-02T05:27:44.843Z,1015.34
2023-03-02T05:28:44.853Z,1015.35
2023-03-02T05:29:45.325Z,1015.33
2023-03-02T05:30:44.813Z,1015.34
2023-03-02T05:31:44.865Z,1015.35
2023-03-02T05:32:44.787Z,1015.38
2023-03-02T05:33:44.782Z,1015.39
2023-03-02T05:34:44.784Z,1015.36
2023-03-02T05:35:44.786Z,1015.41
2023-03-02T05:36:44.755Z,1015.39
2023-03-02T05:37:44.747Z,1015.37
2023-03-02T05:38:44.735Z,1015.40
2023-03-02T05:39:44.726Z,1015.45
2023-03-02T05:40:44.713Z,1015.45
2023-03-02T05:41:44.697Z,1015.48
2023-03-02T05:42:44.683Z,1015.44
2023-03-02T05:43:44.680Z,1015.50
2023-03-02T05:44:44.677Z,1015.47
2023-03-02T05:45:44.643Z,1015.49
2023-03-02T05:46:44.670Z,1015.55
2023-03-02T05:47:44.642Z,1015.58
2023-03-02T05:48:44.640Z,1015.52
2023-03-02T05:49:44.628Z,1015.55
2023-03-02T05:50:44.605Z,1015.55
2023-03-02T05:51:44.584Z,1015.61
2023-03-02T05:52:44.583Z,1015.62
2023-03-02T05:53:44.572Z,1015.63
2023-03-02T05:54:44.572Z,1015.63
2023-03-02T05:55:44.561Z,1015.62
2023-03-02T05:56:44.554Z,1015.64
2023-03-02T05:57:44.529Z,1015.68
2023-03-02T05:58:44.540Z,1015.69
2023-03-02T05:59:44.531Z,1015.70
2023-03-02T06:00:44.504Z,1015.67
2023-03-02T06:01:44.507Z,1015.69
2023-03-02T06:02:44.831Z,1015.67
2023-03-02T06:03:44.815Z,1015.68
2023-03-02T06:04:47.937Z,1015.62
2023-03-02T06:05:44.617Z,1015.59
2023-03-02T06:06:44.797Z,1015.64
2023-03-02T06:07:45.251Z,1015.63
2023-03-02T06:08:44.603Z,1015.66
2023-03-02T06:09:45.082Z,1015.64
2023-03-02T06:10:44.593Z,1015.61
2023-03-02T06:11:44.610Z,1015.65
2023-03-02T06:12:45.859Z,1015.61
2023-03-02T06:13:44.372Z,1015.64
2023-03-02T06:14:44.392Z,1015.63
2023-03-02T06:15:44.339Z,1015.63
2023-03-02T06:16:44.405Z,1015.63
2023-03-02T06:17:44.328Z,1015.65
2023-03-02T06:18:44.315Z,1015.59
2023-03-02T06:19:44.363Z,1015.62
2023-03-02T06:20:44.442Z,1015.65
2023-03-02T06:21:44.302Z,1015.63
2023-03-02T06:22:44.300Z,1015.59
2023-03-02T06:23:44.264Z,1015.61
2023-03-02T06:24:44.280Z,1015.60
2023-03-02T06:25:44.248Z,1015.65
2023-03-02T06:26:44.427Z,1015.61
2023-03-02T06:27:45.121Z,1015.62
2023-03-02T06:28:52.703Z,1015.62
2023-03-02T06:29:48.511Z,1015.65
2023-03-02T06:30:44.544Z,1015.67
2023-03-02T06:31:44.572Z,1015.66
2023-03-02T06:32:44.220Z,1015.66
2023-03-02T06:33:44.172Z,1015.67
2023-03-02T06:34:44.200Z,1015.74
2023-03-02T06:35:44.236Z,1015.71
2023-03-02T06:36:44.119Z,1015.69
2023-03-02T06:37:44.517Z,1015.70
2023-03-02T06:38:44.101Z,1015.69
2023-03-02T06:39:44.436Z,1015.71
2023-03-02T06:40:44.303Z,1015.72
2023-03-02T06:41:51.587Z,1015.75
2023-03-02T06:42:45.282Z,1015.76
2023-03-02T06:43:51.096Z,1015.78
2023-03-02T06:44:44.054Z,1015.74
2023-03-02T06:45:44.033Z,1015.72
2023-03-02T06:46:46.691Z,1015.74
2023-03-02T06:47:43.992Z,1015.71
2023-03-02T06:48:44.007Z,1015.72
2023-03-02T06:49:43.987Z,1015.72
2023-03-02T06:50:43.980Z,1015.73
2023-03-02T06:51:43.944Z,1015.76
2023-03-02T06:52:43.961Z,1015.79
2023-03-02T06:53:43.931Z,1015.78
2023-03-02T06:54:43.934Z,1015.78
2023-03-02T06:55:43.977Z,1015.78
2023-03-02T06:56:43.911Z,1015.77
2023-03-02T06:57:43.884Z,1015.78
2023-03-02T06:58:43.903Z,1015.79
2023-03-02T06:59:43.882Z,1015.77
2023-03-02T07:00:43.881Z,1015.80
2023-03-02T07:01:43.953Z,1015.77
2023-03-02T07:02:43.840Z,1015.76
2023-03-02T07:03:43.875Z,1015.79
2023-03-02T07:04:43.843Z,1015.77
2023-03-02T07:05:46.065Z,1015.76
2023-03-02T07:06:43.791Z,1015.77
2023-03-02T07:07:43.781Z,1015.78
2023-03-02T07:08:43.770Z,1015.79
2023-03-02T07:09:43.769Z,1015.79
2023-03-02T07:10:43.761Z,1015.80
2023-03-02T07:11:43.739Z,1015.78
2023-03-02T07:12:43.730Z,1015.77
2023-03-02T07:13:43.710Z,1015.83
2023-03-02T07:14:43.721Z,1015.79
2023-03-02T07:15:43.717Z,1015.83
2023-03-02T07:16:43.772Z,1015.78
2023-03-02T07:17:43.721Z,1015.81
2023-03-02T07:18:43.697Z,1015.78
2023-03-02T07:19:43.678Z,1015.78
2023-03-02T07:20:43.680Z,1015.79
2023-03-02T07:21:43.657Z,1015.79
2023-03-02T07:22:43.621Z,1015.75
2023-03-02T07:23:43.608Z,1015.73
2023-03-02T07:24:45.011Z,1015.68
2023-03-02T07:25:43.608Z,1015.68
2023-03-02T07:26:43.586Z,1015.70
2023-03-02T07:27:43.567Z,1015.71
2023-03-02T07:28:43.567Z,1015.73
2023-03-02T07:29:43.538Z,1015.74
2023-03-02T07:30:43.603Z,1015.70
2023-03-02T07:31:43.540Z,1015.69
2023-03-02T07:32:43.517Z,1015.72
2023-03-02T07:33:43.497Z,1015.71
2023-03-02T07:34:43.499Z,1015.67
2023-03-02T07:35:43.506Z,1015.68
2023-03-02T07:36:43.475Z,1015.65
2023-03-02T07:37:43.458Z,1015.67
2023-03-02T07:38:43.449Z,1015.66
2023-03-02T07:39:43.430Z,1015.64
2023-03-02T07:40:43.460Z,1015.63
2023-03-02T07:41:43.417Z,1015.61
2023-03-02T07:42:43.410Z,1015.61
2023-03-02T07:43:43.418Z,1015.59
2023-03-02T07:44:43.397Z,1015.57
2023-03-02T07:45:43.370Z,1015.59
2023-03-02T07:46:43.411Z,1015.57
2023-03-02T07:47:43.363Z,1015.61
2023-03-02T07:48:43.353Z,1015.57
2023-03-02T07:49:43.330Z,1015.59
2023-03-02T07:50:43.366Z,1015.55
2023-03-02T07:51:43.309Z,1015.54
2023-03-02T07:52:43.304Z,1015.52
2023-03-02T07:53:43.290Z,1015.55
2023-03-02T07:54:43.281Z,1015.53
2023-03-02T07:55:43.280Z,1015.57
2023-03-02T07:56:43.281Z,1015.55
2023-03-02T07:57:43.253Z,1015.55
2023-03-02T07:58:43.244Z,1015.56
2023-03-02T07:59:43.222Z,1015.53
2023-03-02T08:00:43.231Z,1015.50
2023-03-02T08:01:43.241Z,1015.55
2023-03-02T08:02:43.294Z,1015.58
2023-03-02T08:03:43.250Z,1015.57
2023-03-02T08:04:43.173Z,1015.59
2023-03-02T08:05:43.202Z,1015.57
2023-03-02T08:06:43.307Z,1015.60
2023-03-02T08:07:43.143Z,1015.63
2023-03-02T08:08:43.125Z,1015.62
2023-03-02T08:09:43.115Z,1015.63
2023-03-02T08:10:43.155Z,1015.65
2023-03-02T08:11:43.165Z,1015.60
2023-03-02T08:12:43.093Z,1015.60
2023-03-02T08:13:43.190Z,1015.57
2023-03-02T08:14:43.298Z,1015.59
2023-03-02T08:15:43.055Z,1015.58
2023-03-02T08:16:43.139Z,1015.60
2023-03-02T08:17:43.054Z,1015.59
2023-03-02T08:18:43.032Z,1015.58
2023-03-02T08:19:43.011Z,1015.58
2023-03-02T08:20:43.025Z,1015.56
2023-03-02T08:21:42.990Z,1015.55
2023-03-02T08:22:42.982Z,1015.52
2023-03-02T08:23:43.031Z,1015.55
2023-03-02T08:24:42.960Z,1015.52
2023-03-02T08:25:42.958Z,1015.50
2023-03-02T08:26:42.928Z,1015.55
2023-03-02T08:27:42.957Z,1015.56
2023-03-02T08:28:42.918Z,1015.56
2023-03-02T08:29:42.898Z,1015.51
2023-03-02T08:30:42.919Z,1015.54
2023-03-02T08:31:42.917Z,1015.54
2023-03-02T08:32:42.929Z,1015.63
2023-03-02T08:33:42.869Z,1015.63
2023-03-02T08:34:42.849Z,1015.61
2023-03-02T08:35:42.885Z,1015.63
2023-03-02T08:36:42.845Z,1015.61
2023-03-02T08:37:42.813Z,1015.59
2023-03-02T08:38:42.829Z,1015.58
2023-03-02T08:39:42.800Z,1015.59
2023-03-02T08:40:42.810Z,1015.61
2023-03-02T08:41:42.771Z,1015.61
2023-03-02T08:42:42.776Z,1015.61
2023-03-02T08:43:42.759Z,1015.60
2023-03-02T08:44:42.749Z,1015.60
2023-03-02T08:45:42.767Z,1015.57
2023-03-02T08:46:42.735Z,1015.59
2023-03-02T08:47:42.718Z,1015.61
2023-03-02T08:48:42.730Z,1015.59
2023-03-02T08:49:42.708Z,1015.60
2023-03-02T08:50:42.698Z,1015.59
2023-03-02T08:51:42.677Z,1015.61
2023-03-02T08:52:42.800Z,1015.56
2023-03-02T08:53:42.649Z,1015.50
2023-03-02T08:54:42.657Z,1015.50
2023-03-02T08:55:42.677Z,1015.48
2023-03-02T08:56:42.616Z,1015.48
2023-03-02T08:57:42.594Z,1015.46
2023-03-02T08:58:42.596Z,1015.43
2023-03-02T08:59:42.591Z,1015.43
2023-03-02T09:00:42.593Z,1015.44
2023-03-02T09:01:42.656Z,1015.42
2023-03-02T09:02:42.576Z,1015.36
2023-03-02T09:03:42.537Z,1015.35
2023-03-02T09:04:42.597Z,1015.39
2023-03-02T09:05:42.532Z,1015.36
2023-03-02T09:06:42.511Z,1015.36
2023-03-02T09:07:42.536Z,1015.32
2023-03-02T09:08:42.509Z,1015.33
2023-03-02T09:09:42.475Z,1015.34
2023-03-02T09:10:42.486Z,1015.35
2023-03-02T09:11:42.443Z,1015.31
2023-03-02T09:12:42.439Z,1015.31
2023-03-02T09:13:42.433Z,1015.32
2023-03-02T09:14:42.446Z,1015.32
2023-03-02T09:15:42.428Z,1015.28
2023-03-02T09:16:42.501Z,1015.24
2023-03-02T09:17:43.104Z,1015.25
2023-03-02T09:18:42.386Z,1015.29
2023-03-02T09:19:44.463Z,1015.27
2023-03-02T09:20:42.391Z,1015.27
2023-03-02T09:21:42.346Z,1015.27
2023-03-02T09:22:42.350Z,1015.31
2023-03-02T09:23:42.360Z,1015.31
2023-03-02T09:24:42.308Z,1015.30
2023-03-02T09:25:44.239Z,1015.27
2023-03-02T09:26:42.306Z,1015.23
2023-03-02T09:27:42.291Z,1015.26
2023-03-02T09:28:42.259Z,1015.27
2023-03-02T09:29:42.261Z,1015.27
2023-03-02T09:30:42.260Z,1015.27
2023-03-02T09:31:42.283Z,1015.23
2023-03-02T09:32:42.371Z,1015.22
2023-03-02T09:33:42.332Z,1015.24
2023-03-02T09:34:42.331Z,1015.28
2023-03-02T09:35:42.209Z,1015.28
2023-03-02T09:36:42.202Z,1015.24
2023-03-02T09:37:44.265Z,1015.24
2023-03-02T09:38:42.161Z,1015.23
2023-03-02T09:39:42.254Z,1015.27
2023-03-02T09:40:42.182Z,1015.22
2023-03-02T09:41:42.131Z,1015.21
2023-03-02T09:42:44.325Z,1015.23
2023-03-02T09:43:42.160Z,1015.20
2023-03-02T09:44:42.105Z,1015.21
2023-03-02T09:45:42.101Z,1015.21
2023-03-02T09:46:42.084Z,1015.25
2023-03-02T09:47:42.055Z,1015.23
2023-03-02T09:48:42.057Z,1015.19
2023-03-02T09:49:42.041Z,1015.21
2023-03-02T09:50:42.043Z,1015.17
2023-03-02T09:51:42.020Z,1015.19
2023-03-02T09:52:42.015Z,1015.17
2023-03-02T09:53:41.993Z,1015.14
2023-03-02T09:54:42.127Z,1015.19
2023-03-02T09:55:42.129Z,1015.27
2023-03-02T09:56:41.974Z,1015.22
2023-03-02T09:57:41.952Z,1015.16
2023-03-02T09:58:41.945Z,1015.16
2023-03-02T09:59:41.937Z,1015.16
2023-03-02T10:00:41.994Z,1015.11
2023-03-02T10:01:41.905Z,1015.15
2023-03-02T10:02:42.068Z,1015.15
2023-03-02T10:03:42.018Z,1015.11
2023-03-02T10:04:41.921Z,1015.18
2023-03-02T10:05:41.873Z,1015.13
2023-03-02T10:06:41.854Z,1015.10
2023-03-02T10:07:41.833Z,1015.10
2023-03-02T10:08:41.826Z,1015.15
2023-03-02T10:09:41.882Z,1015.06
2023-03-02T10:10:41.833Z,1015.14
2023-03-02T10:11:41.788Z,1015.08
2023-03-02T10:12:41.776Z,1015.06
2023-03-02T10:13:41.768Z,1015.08
2023-03-02T10:14:41.806Z,1015.12
2023-03-02T10:15:41.813Z,1015.05
2023-03-02T10:16:41.858Z,1015.01
2023-03-02T10:17:41.734Z,1015.07
2023-03-02T10:18:41.732Z,1014.96
2023-03-02T10:19:41.723Z,1015.00
2023-03-02T10:20:41.719Z,1015.00
2023-03-02T10:21:41.681Z,1014.97
2023-03-02T10:22:41.680Z,1014.96
2023-03-02T10:23:41.661Z,1014.96
2023-03-02T10:24:41.650Z,1014.93
2023-03-02T10:25:41.665Z,1014.89
2023-03-02T10:26:41.649Z,1014.78
2023-03-02T10:27:41.667Z,1014.83
2023-03-02T10:28:41.613Z,1014.87
2023-03-02T10:29:41.613Z,1014.82
2023-03-02T10:30:41.640Z,1014.81
2023-03-02T10:31:41.569Z,1014.80
2023-03-02T10:32:41.564Z,1014.76
2023-03-02T10:33:41.544Z,1014.78
2023-03-02T10:34:41.544Z,1014.77
2023-03-02T10:35:41.596Z,1014.75
2023-03-02T10:36:41.540Z,1014.72
2023-03-02T10:37:41.542Z,1014.70
2023-03-02T10:38:41.504Z,1014.69
2023-03-02T10:39:41.510Z,1014.68
2023-03-02T10:40:41.527Z,1014.69
2023-03-02T10:41:41.479Z,1014.62
2023-03-02T10:42:41.460Z,1014.67
2023-03-02T10:43:41.474Z,1014.63
2023-03-02T10:44:41.430Z,1014.60
2023-03-02T10:45:41.460Z,1014.61
2023-03-02T10:46:41.501Z,1014.61
2023-03-02T10:47:41.400Z,1014.62
2023-03-02T10:48:41.391Z,1014.62
2023-03-02T10:49:41.410Z,1014.63
2023-03-02T10:50:41.403Z,1014.62
2023-03-02T10:51:41.353Z,1014.60
2023-03-02T10:52:46.119Z,1014.57
2023-03-02T10:53:42.344Z,1014.59
2023-03-02T10:54:41.326Z,1014.59
2023-03-02T10:55:41.346Z,1014.60
2023-03-02T10:56:41.361Z,1014.54
2023-03-02T10:57:41.298Z,1014.49
2023-03-02T10:58:41.276Z,1014.53
2023-03-02T10:59:41.275Z,1014.53
2023-03-02T11:00:41.297Z,1014.48
2023-03-02T11:01:41.294Z,1014.51
2023-03-02T11:02:41.238Z,1014.48
2023-03-02T11:03:41.230Z,1014.48
2023-03-02T11:04:41.291Z,1014.46
2023-03-02T11:05:41.266Z,1014.46
2023-03-02T11:06:41.207Z,1014.41
2023-03-02T11:07:41.227Z,1014.41
2023-03-02T11:08:41.183Z,1014.41
2023-03-02T11:09:41.167Z,1014.41
2023-03-02T11:10:41.202Z,1014.41
2023-03-02T11:11:41.203Z,1014.36
2023-03-02T11:12:41.133Z,1014.38
2023-03-02T11:13:41.146Z,1014.37
2023-03-02T11:14:41.130Z,1014.36
2023-03-02T11:15:41.176Z,1014.36
2023-03-02T11:16:41.125Z,1014.34
2023-03-02T11:17:41.124Z,1014.31
2023-03-02T11:18:41.085Z,1014.23
2023-03-02T11:19:41.069Z,1014.23
2023-03-02T11:20:41.084Z,1014.23
2023-03-02T11:21:41.038Z,1014.23
2023-03-02T11:22:41.037Z,1014.22
2023-03-02T11:23:41.020Z,1014.22
2023-03-02T11:24:41.016Z,1014.25
2023-03-02T11:25:41.019Z,1014.21
2023-03-02T11:26:41.003Z,1014.21
2023-03-02T11:27:40.991Z,1014.21
2023-03-02T11:28:40.982Z,1014.22
2023-03-02T11:29:40.965Z,1014.20
2023-03-02T11:30:40.964Z,1014.21
2023-03-02T11:31:41.054Z,1014.20
2023-03-02T11:32:40.984Z,1014.21
2023-03-02T11:33:40.948Z,1014.18
2023-03-02T11:34:40.909Z,1014.18
2023-03-02T11:35:40.917Z,1014.18
2023-03-02T11:36:40.886Z,1014.14
2023-03-02T11:37:40.903Z,1014.10
2023-03-02T11:38:40.860Z,1014.02
2023-03-02T11:39:46.513Z,1014.07
2023-03-02T11:40:43.059Z,1014.05
2023-03-02T11:41:40.829Z,1014.07
2023-03-02T11:42:40.822Z,1014.00
2023-03-02T11:43:40.801Z,1014.02
2023-03-02T11:44:40.793Z,1014.01
2023-03-02T11:45:40.799Z,1013.98
2023-03-02T11:46:40.818Z,1014.02
2023-03-02T11:47:40.763Z,1013.95
2023-03-02T11:48:40.769Z,1013.96
2023-03-02T11:49:40.751Z,1014.00
2023-03-02T11:50:40.757Z,1013.99
2023-03-02T11:51:49.967Z,1013.96
2023-03-02T11:52:41.727Z,1014.00
2023-03-02T11:53:40.782Z,1014.03
2023-03-02T11:54:40.702Z,1013.98
2023-03-02T11:55:40.709Z,1013.98
2023-03-02T11:56:40.674Z,1013.98
2023-03-02T11:57:40.659Z,1013.99
2023-03-02T11:58:40.661Z,1013.95
2023-03-02T11:59:41.371Z,1013.92
2023-03-02T12:00:40.677Z,1013.92
2023-03-02T12:01:40.673Z,1013.92
2023-03-02T12:02:40.618Z,1013.90
2023-03-02T12:03:40.599Z,1013.90
2023-03-02T12:04:40.599Z,1013.89
2023-03-02T12:05:40.606Z,1013.86